createdAt,value
2018-02-22T00:00:15.827Z,42.28
2018-02-22T00:02:44.499Z,30.00
2018-02-22T00:05:13.445Z,37.03
2018-02-22T00:07:47.073Z,42.72
2018-02-22T00:10:16.171Z,35.97
2018-02-22T00:12:45.288Z,46.97
2018-02-22T00:15:14.265Z,41.50
2018-02-22T00:17:43.274Z,39.45
2018-02-22T00:20:13.948Z,39.55
2018-02-22T00:22:43.799Z,27.45
2018-02-22T00:25:13.815Z,33.95
2018-02-22T00:27:42.910Z,28.42
2018-02-22T00:30:11.894Z,31.48
2018-02-22T00:32:41.314Z,27.98
2018-02-22T00:35:10.510Z,35.25
2018-02-22T00:37:41.919Z,24.65
2018-02-22T00:40:10.894Z,30.67
2018-02-22T00:42:39.945Z,25.62
2018-02-22T00:45:12.626Z,26.70
2018-02-22T00:47:41.722Z,22.05
2018-02-22T00:50:11.977Z,23.27
2018-02-22T00:52:41.033Z,30.53
2018-02-22T00:55:10.028Z,31.60
2018-02-22T00:57:39.027Z,28.70
2018-02-22T01:00:09.857Z,23.33
2018-02-22T01:02:39.706Z,29.12
2018-02-22T01:05:08.711Z,38.22
2018-02-22T01:07:38.884Z,26.08
2018-02-22T01:10:08.192Z,28.47
2018-02-22T01:12:37.181Z,23.60
2018-02-22T01:15:07.083Z,22.67
2018-02-22T01:17:36.086Z,28.00
2018-02-22T01:20:05.107Z,21.48
2018-02-22T01:22:36.156Z,25.35
2018-02-22T01:25:05.062Z,17.30
2018-02-22T01:27:34.009Z,24.10
2018-02-22T01:30:03.110Z,25.52
2018-02-22T01:32:32.205Z,23.58
2018-02-22T01:35:01.196Z,23.95
2018-02-22T01:37:31.163Z,21.17
2018-02-22T01:40:00.155Z,25.15
2018-02-22T01:42:29.921Z,22.92
2018-02-22T01:44:58.906Z,20.77
2018-02-22T01:47:27.903Z,27.50
2018-02-22T01:49:57.900Z,26.12
2018-02-22T01:52:28.554Z,23.10
2018-02-22T01:54:57.651Z,23.92
2018-02-22T01:57:26.747Z,19.90
2018-02-22T01:59:56.770Z,23.10
2018-02-22T02:02:25.858Z,19.00
2018-02-22T02:04:54.856Z,21.95
2018-02-22T02:07:25.074Z,25.65
2018-02-22T02:09:54.170Z,25.90
2018-02-22T02:12:24.082Z,27.65
2018-02-22T02:14:55.644Z,32.45
2018-02-22T02:17:24.606Z,28.23
2018-02-22T02:19:53.733Z,34.97
2018-02-22T02:22:23.692Z,30.98
2018-02-22T02:24:53.495Z,31.17
2018-02-22T02:27:22.451Z,29.98
2018-02-22T02:29:51.383Z,36.05
2018-02-22T02:32:20.337Z,39.38
2018-02-22T02:34:49.339Z,37.00
2018-02-22T02:37:18.945Z,31.40
2018-02-22T02:39:48.445Z,31.35
2018-02-22T02:42:17.365Z,22.45
2018-02-22T02:44:46.461Z,24.77
2018-02-22T02:47:15.253Z,27.33
2018-02-22T02:49:44.316Z,28.00
2018-02-22T02:52:14.748Z,24.15
2018-02-22T02:54:44.096Z,26.75
2018-02-22T02:57:14.053Z,21.77
2018-02-22T02:59:43.985Z,32.08
2018-02-22T03:02:13.719Z,23.70
2018-02-22T03:04:42.676Z,22.85
2018-02-22T03:07:12.631Z,27.92
2018-02-22T03:09:41.593Z,30.80
2018-02-22T03:12:10.995Z,31.08
2018-02-22T03:14:41.527Z,33.63
2018-02-22T03:17:10.653Z,37.58
2018-02-22T03:19:39.544Z,28.55
2018-02-22T03:22:08.608Z,29.17
2018-02-22T03:24:37.599Z,31.40
2018-02-22T03:27:06.490Z,43.03
2018-02-22T03:29:36.461Z,35.53
2018-02-22T03:32:05.304Z,35.75
2018-02-22T03:34:34.293Z,30.20
2018-02-22T03:37:03.390Z,34.47
2018-02-22T03:39:32.413Z,37.50
2018-02-22T03:42:01.305Z,33.03
2018-02-22T03:44:35.425Z,37.15
2018-02-22T03:47:04.384Z,43.95
2018-02-22T03:49:33.366Z,36.83
2018-02-22T03:52:03.189Z,32.67
2018-02-22T03:54:32.390Z,31.37
2018-02-22T03:57:01.520Z,31.35
2018-02-22T03:59:31.400Z,33.13
2018-02-22T04:02:00.483Z,34.33
2018-02-22T04:04:29.479Z,32.60
2018-02-22T04:07:00.125Z,40.38
2018-02-22T04:09:29.055Z,29.45
2018-02-22T04:11:58.111Z,32.63
2018-02-22T04:14:27.001Z,31.67
2018-02-22T04:16:55.883Z,31.25
2018-02-22T04:19:25.198Z,35.88
2018-02-22T04:21:54.285Z,37.67
2018-02-22T04:24:23.224Z,29.77
2018-02-22T04:26:52.304Z,29.30
2018-02-22T04:29:22.294Z,30.27
2018-02-22T04:31:52.102Z,34.08
2018-02-22T04:34:21.107Z,39.58
2018-02-22T04:36:50.806Z,36.55
2018-02-22T04:39:19.909Z,39.55
2018-02-22T04:41:49.002Z,29.52
2018-02-22T04:44:20.192Z,40.15
2018-02-22T04:46:49.864Z,33.22
2018-02-22T04:49:18.883Z,38.13
2018-02-22T04:51:47.944Z,35.90
2018-02-22T04:54:16.837Z,31.35
2018-02-22T04:56:46.074Z,32.90
2018-02-22T04:59:17.800Z,31.45
2018-02-22T05:01:49.186Z,45.55
2018-02-22T05:04:19.059Z,37.05
2018-02-22T05:06:48.054Z,34.15
2018-02-22T05:09:17.095Z,34.65
2018-02-22T05:11:46.971Z,40.45
2018-02-22T05:14:16.058Z,41.65
2018-02-22T05:16:45.261Z,32.92
2018-02-22T05:19:15.826Z,39.22
2018-02-22T05:21:44.887Z,32.60
2018-02-22T05:24:14.730Z,35.42
2018-02-22T05:26:45.529Z,30.85
2018-02-22T05:29:14.601Z,36.80
2018-02-22T05:31:43.631Z,35.38
2018-02-22T05:34:14.321Z,36.88
2018-02-22T05:36:43.350Z,36.00
2018-02-22T05:39:12.312Z,40.83
2018-02-22T05:41:42.344Z,39.45
2018-02-22T05:44:11.356Z,35.65
2018-02-22T05:46:41.111Z,36.70
2018-02-22T05:49:14.250Z,35.80
2018-02-22T05:51:43.216Z,45.10
2018-02-22T05:54:12.240Z,38.45
2018-02-22T05:56:42.942Z,38.10
2018-02-22T05:59:11.992Z,38.15
2018-02-22T06:01:41.105Z,45.58
2018-02-22T06:04:11.084Z,42.38
2018-02-22T06:06:40.159Z,37.13
2018-02-22T06:09:09.177Z,39.10
2018-02-22T06:11:38.319Z,47.00
2018-02-22T06:14:07.369Z,44.78
2018-02-22T06:16:36.364Z,41.78
2018-02-22T06:19:05.356Z,46.55
2018-02-22T06:21:34.451Z,41.65
2018-02-22T06:24:03.551Z,49.20
2018-02-22T06:26:33.398Z,44.15
2018-02-22T06:29:02.455Z,36.50
2018-02-22T06:31:32.515Z,44.30
2018-02-22T06:34:01.570Z,34.20
2018-02-22T06:36:30.770Z,49.20
2018-02-22T06:38:59.661Z,45.10
2018-02-22T06:41:29.474Z,46.42
2018-02-22T06:43:58.674Z,43.15
2018-02-22T06:46:28.588Z,40.25
2018-02-22T06:48:59.265Z,38.45
2018-02-22T06:51:28.874Z,47.53
2018-02-22T06:53:57.958Z,31.17
2018-02-22T06:56:27.826Z,31.00
2018-02-22T06:58:56.940Z,42.62
2018-02-22T07:01:25.923Z,31.95
2018-02-22T07:03:57.542Z,37.13
2018-02-22T07:06:26.478Z,27.80
2018-02-22T07:08:55.577Z,32.10
2018-02-22T07:11:25.661Z,38.35
2018-02-22T07:13:54.608Z,39.38
2018-02-22T07:16:23.704Z,27.48
2018-02-22T07:18:52.884Z,25.75
2018-02-22T07:21:21.877Z,30.20
2018-02-22T07:23:50.847Z,22.95
2018-02-22T07:26:19.962Z,31.52
2018-02-22T07:28:48.987Z,29.25
2018-02-22T07:31:18.058Z,24.63
2018-02-22T07:33:47.261Z,26.55
2018-02-22T07:36:17.738Z,27.05
2018-02-22T07:38:48.946Z,27.00
2018-02-22T07:41:18.060Z,23.90
2018-02-22T07:43:47.160Z,28.87
2018-02-22T07:46:17.959Z,24.30
2018-02-22T07:48:46.945Z,23.17
2018-02-22T07:51:16.050Z,11.38
2018-02-22T07:53:46.223Z,19.87
2018-02-22T07:56:15.263Z,15.02
2018-02-22T07:58:44.156Z,13.80
2018-02-22T08:01:13.376Z,12.48
2018-02-22T08:03:42.334Z,13.30
2018-02-22T08:06:11.359Z,14.98
2018-02-22T08:08:42.065Z,15.95
2018-02-22T08:11:10.956Z,15.20
2018-02-22T08:13:40.560Z,17.95
2018-02-22T08:16:10.516Z,22.27
2018-02-22T08:18:40.189Z,18.05
2018-02-22T08:21:09.095Z,16.25
2018-02-22T08:23:38.922Z,16.30
2018-02-22T08:26:07.889Z,19.10
2018-02-22T08:28:37.084Z,18.27
2018-02-22T08:31:07.720Z,19.65
2018-02-22T08:33:37.585Z,20.60
2018-02-22T08:36:06.627Z,22.65
2018-02-22T08:38:36.111Z,22.15
2018-02-22T08:41:05.025Z,19.77
2018-02-22T08:43:35.005Z,18.37
2018-02-22T08:46:04.138Z,20.00
2018-02-22T08:48:34.064Z,21.15
2018-02-22T08:51:03.078Z,17.95
2018-02-22T08:53:33.076Z,22.62
2018-02-22T08:56:02.310Z,26.48
2018-02-22T08:58:31.404Z,20.40
2018-02-22T09:01:00.493Z,23.50
2018-02-22T09:03:30.358Z,26.23
2018-02-22T09:06:00.428Z,24.50
2018-02-22T09:08:30.273Z,17.08
2018-02-22T09:11:01.863Z,17.33
2018-02-22T09:13:32.528Z,16.50
2018-02-22T09:16:02.000Z,21.20
2018-02-22T09:18:31.116Z,15.98
2018-02-22T09:21:01.335Z,24.65
2018-02-22T09:23:30.214Z,14.77
2018-02-22T09:25:59.203Z,17.58
2018-02-22T09:28:28.195Z,15.77
2018-02-22T09:30:58.139Z,19.20
2018-02-22T09:33:27.974Z,17.75
2018-02-22T09:35:57.067Z,19.37
2018-02-22T09:38:26.121Z,22.37
2018-02-22T09:40:56.038Z,20.40
2018-02-22T09:43:24.992Z,22.52
2018-02-22T09:45:54.904Z,19.52
2018-02-22T09:48:23.911Z,18.35
2018-02-22T09:50:53.856Z,25.83
2018-02-22T09:53:22.850Z,20.50
2018-02-22T09:55:52.050Z,19.23
2018-02-22T09:58:21.970Z,18.60
2018-02-22T10:00:51.370Z,27.13
2018-02-22T10:03:21.280Z,23.70
2018-02-22T10:05:51.606Z,25.35
2018-02-22T10:08:20.517Z,24.65
2018-02-22T10:10:49.486Z,21.50
2018-02-22T10:13:18.893Z,15.82
2018-02-22T10:15:48.810Z,19.02
2018-02-22T10:18:18.826Z,18.17
2018-02-22T10:20:49.743Z,20.90
2018-02-22T10:23:19.686Z,19.50
2018-02-22T10:25:48.609Z,20.88
2018-02-22T10:28:17.674Z,24.98
2018-02-22T10:30:46.696Z,25.60
2018-02-22T10:33:15.653Z,24.05
2018-02-22T10:35:47.039Z,24.35
2018-02-22T10:38:15.999Z,24.00
2018-02-22T10:40:44.991Z,27.10
2018-02-22T10:43:15.957Z,23.87
2018-02-22T10:45:45.743Z,30.90
2018-02-22T10:48:14.695Z,32.40
2018-02-22T10:50:43.732Z,30.73
2018-02-22T10:53:12.811Z,27.50
2018-02-22T10:55:41.824Z,33.38
2018-02-22T10:58:11.119Z,21.83
2018-02-22T11:00:45.543Z,30.00
2018-02-22T11:03:15.398Z,23.45
2018-02-22T11:05:44.456Z,18.50
2018-02-22T11:08:13.490Z,20.80
2018-02-22T11:10:43.543Z,15.87
2018-02-22T11:13:12.576Z,18.07
2018-02-22T11:15:41.661Z,24.87
2018-02-22T11:18:12.600Z,22.10
2018-02-22T11:20:41.694Z,23.53
2018-02-22T11:23:11.549Z,18.47
2018-02-22T11:25:40.568Z,17.37
2018-02-22T11:28:10.472Z,18.67
2018-02-22T11:30:41.083Z,19.70
2018-02-22T11:33:10.937Z,16.17
2018-02-22T11:35:40.157Z,21.13
2018-02-22T11:38:09.243Z,28.07
2018-02-22T11:40:38.252Z,20.65
2018-02-22T11:43:07.288Z,19.40
2018-02-22T11:45:36.243Z,17.50
2018-02-22T11:48:06.363Z,26.80
2018-02-22T11:50:36.378Z,21.37
2018-02-22T11:53:05.371Z,18.87
2018-02-22T11:55:34.783Z,17.27
2018-02-22T11:58:04.010Z,18.77
2018-02-22T12:00:33.019Z,17.27
2018-02-22T12:03:02.827Z,25.73
2018-02-22T12:05:31.820Z,28.03
2018-02-22T12:08:02.218Z,23.53
2018-02-22T12:10:33.857Z,23.40
2018-02-22T12:13:02.835Z,18.03
2018-02-22T12:15:31.955Z,46.57
2018-02-22T12:18:01.659Z,40.03
2018-02-22T12:20:32.191Z,26.00
2018-02-22T12:23:01.899Z,34.20
2018-02-22T12:25:32.100Z,27.13
2018-02-22T12:28:01.127Z,25.17
2018-02-22T12:30:30.163Z,20.90
2018-02-22T12:32:59.759Z,27.25
2018-02-22T12:35:28.695Z,19.10
2018-02-22T12:37:57.806Z,25.77
2018-02-22T12:40:27.912Z,24.37
2018-02-22T12:42:57.034Z,21.12
2018-02-22T12:45:26.345Z,22.75
2018-02-22T12:47:55.423Z,29.35
2018-02-22T12:50:24.484Z,17.90
2018-02-22T12:52:54.344Z,17.75
2018-02-22T12:55:25.168Z,16.90
2018-02-22T12:57:54.163Z,19.52
2018-02-22T13:00:23.204Z,21.08
2018-02-22T13:02:54.096Z,16.67
2018-02-22T13:05:23.156Z,19.27
2018-02-22T13:07:52.346Z,22.60
2018-02-22T13:10:22.925Z,21.80
2018-02-22T13:12:52.059Z,21.80
2018-02-22T13:15:21.152Z,26.17
2018-02-22T13:17:50.622Z,20.10
2018-02-22T13:20:20.059Z,29.27
2018-02-22T13:22:49.232Z,18.33
2018-02-22T13:25:19.222Z,18.17
2018-02-22T13:27:48.398Z,20.17
2018-02-22T13:30:17.440Z,26.37
2018-02-22T13:32:58.362Z,20.58
2018-02-22T13:35:27.560Z,24.52
2018-02-22T13:38:17.394Z,27.95
2018-02-22T13:40:47.249Z,28.53
2018-02-22T13:43:16.603Z,21.42
2018-02-22T13:45:46.732Z,20.92
2018-02-22T13:48:16.647Z,17.43
2018-02-22T13:51:00.166Z,20.30
2018-02-22T13:53:29.416Z,26.60
2018-02-22T13:55:58.574Z,24.55
2018-02-22T13:58:28.410Z,27.77
2018-02-22T14:01:24.513Z,29.25
2018-02-22T14:03:55.908Z,25.90
2018-02-22T14:06:25.167Z,27.42
2018-02-22T14:08:54.783Z,23.50
2018-02-22T14:11:26.286Z,24.05
2018-02-22T14:13:55.532Z,28.15
2018-02-22T14:16:26.622Z,27.70
2018-02-22T14:18:57.414Z,28.10
2018-02-22T14:21:26.604Z,23.45
2018-02-22T14:23:55.801Z,25.75
2018-02-22T14:26:25.767Z,26.20
2018-02-22T14:28:54.845Z,17.92
2018-02-22T14:31:25.037Z,27.17
2018-02-22T14:33:55.117Z,23.62
2018-02-22T14:36:24.357Z,27.40
2018-02-22T14:38:54.156Z,32.75
2018-02-22T14:41:25.716Z,24.37
2018-02-22T14:43:55.652Z,23.87
2018-02-22T14:46:24.892Z,31.33
2018-02-22T14:48:53.931Z,25.73
2018-02-22T14:51:23.707Z,24.40
2018-02-22T14:53:53.752Z,29.05
2018-02-22T14:56:22.977Z,24.12
2018-02-22T14:58:52.117Z,26.35
2018-02-22T15:01:21.198Z,23.55
2018-02-22T15:03:50.522Z,25.35
2018-02-22T15:06:19.644Z,24.15
2018-02-22T15:08:48.718Z,28.17
2018-02-22T15:11:17.929Z,24.52
2018-02-22T15:13:47.288Z,23.20
2018-02-22T15:16:16.496Z,20.30
2018-02-22T15:18:48.029Z,18.37
2018-02-22T15:21:18.272Z,18.35
2018-02-22T15:23:47.369Z,17.17
2018-02-22T15:26:22.983Z,12.73
2018-02-22T15:28:52.214Z,18.02
2018-02-22T15:31:22.250Z,16.98
2018-02-22T15:33:51.738Z,10.75
2018-02-22T15:36:20.947Z,12.48
2018-02-22T15:38:51.003Z,15.27
2018-02-22T15:41:21.459Z,10.48
2018-02-22T15:43:51.877Z,13.45
2018-02-22T15:46:21.327Z,10.82
2018-02-22T15:48:52.283Z,10.32
2018-02-22T15:51:21.777Z,11.07
2018-02-22T15:53:50.961Z,20.30
2018-02-22T15:56:25.236Z,10.27
2018-02-22T15:58:55.363Z,10.60
2018-02-22T16:01:24.498Z,13.00
2018-02-22T16:03:53.617Z,13.52
2018-02-22T16:06:23.598Z,15.13
2018-02-22T16:08:52.910Z,13.57
2018-02-22T16:11:25.962Z,58.40
2018-02-22T16:13:55.190Z,11.57
2018-02-22T16:16:24.495Z,14.60
2018-02-22T16:18:55.136Z,14.15
2018-02-22T16:21:24.652Z,16.50
2018-02-22T16:23:54.903Z,17.77
2018-02-22T16:26:24.928Z,11.95
2018-02-22T16:28:55.071Z,38.40
2018-02-22T16:31:25.563Z,21.50
2018-02-22T16:33:56.729Z,23.83
2018-02-22T16:36:26.107Z,50.78
2018-02-22T16:38:56.031Z,20.50
2018-02-22T16:41:26.118Z,21.10
2018-02-22T16:43:55.426Z,21.98
2018-02-22T16:46:25.756Z,22.20
2018-02-22T16:48:55.853Z,20.65
2018-02-22T16:51:25.354Z,21.10
2018-02-22T16:53:54.629Z,23.73
2018-02-22T16:56:23.765Z,26.50
2018-02-22T16:58:53.794Z,21.90
2018-02-22T17:01:23.669Z,29.65
2018-02-22T17:03:53.104Z,25.88
2018-02-22T17:06:22.155Z,18.12
2018-02-22T17:08:53.306Z,28.25
2018-02-22T17:11:23.319Z,21.12
2018-02-22T17:13:52.571Z,22.65
2018-02-22T17:16:27.574Z,22.55
2018-02-22T17:18:56.445Z,25.58
2018-02-22T17:21:25.294Z,25.80
2018-02-22T17:23:55.818Z,23.40
2018-02-22T17:26:30.325Z,27.33
2018-02-22T17:29:09.061Z,28.90
2018-02-22T17:31:43.397Z,23.48
2018-02-22T17:34:12.427Z,20.62
2018-02-22T17:36:47.020Z,18.65
2018-02-22T17:42:25.064Z,21.48
2018-02-22T17:44:54.145Z,30.35
2018-02-22T17:47:23.229Z,25.77
2018-02-22T17:49:52.144Z,19.55
2018-02-22T17:52:24.645Z,19.58
2018-02-22T17:54:54.872Z,18.23
2018-02-22T17:57:23.943Z,12.20
2018-02-22T17:59:54.190Z,12.93
2018-02-22T18:02:23.729Z,11.63
2018-02-22T18:04:53.591Z,12.10
2018-02-22T18:07:22.998Z,12.25
2018-02-22T18:09:51.988Z,12.20
2018-02-22T18:12:20.907Z,13.90
2018-02-22T18:14:50.880Z,12.10
2018-02-22T18:17:20.678Z,11.88
2018-02-22T18:19:49.636Z,11.63
2018-02-22T18:22:18.766Z,12.98
2018-02-22T18:24:47.713Z,11.65
2018-02-22T18:27:17.536Z,12.65
2018-02-22T18:29:46.512Z,10.68
2018-02-22T18:32:15.644Z,8.45
2018-02-22T18:34:45.624Z,16.52
2018-02-22T18:37:20.205Z,12.90
2018-02-22T18:39:49.211Z,13.82
2018-02-22T18:42:21.096Z,11.98
2018-02-22T18:44:55.614Z,12.82
2018-02-22T18:47:24.613Z,18.80
2018-02-22T18:49:53.551Z,11.73
2018-02-22T18:52:22.503Z,15.65
2018-02-22T18:54:51.456Z,11.55
2018-02-22T18:57:20.391Z,12.93
2018-02-22T18:59:51.007Z,13.50
2018-02-22T19:02:20.000Z,14.68
2018-02-22T19:04:48.931Z,18.33
2018-02-22T19:07:17.974Z,16.25
2018-02-22T19:09:46.879Z,16.65
2018-02-22T19:12:15.833Z,13.82
2018-02-22T19:14:47.363Z,10.57
2018-02-22T19:17:16.316Z,19.20
2018-02-22T19:19:45.242Z,16.08
2018-02-22T19:22:15.129Z,15.50
2018-02-22T19:24:44.026Z,13.32
2018-02-22T19:27:12.887Z,13.50
2018-02-22T19:29:41.824Z,18.30
2018-02-22T19:32:11.888Z,18.02
2018-02-22T19:34:40.890Z,17.30
2018-02-22T19:37:09.988Z,14.02
2018-02-22T19:39:39.179Z,12.45
2018-02-22T19:42:08.216Z,12.70
2018-02-22T19:44:38.885Z,11.48
2018-02-22T19:47:07.840Z,13.70
2018-02-22T19:49:36.789Z,15.90
2018-02-22T19:52:05.836Z,16.17
2018-02-22T19:54:34.833Z,13.13
2018-02-22T19:57:04.860Z,14.32
2018-02-22T19:59:34.711Z,15.63
2018-02-22T20:02:03.765Z,17.35
2018-02-22T20:04:32.723Z,13.73
2018-02-22T20:07:01.657Z,16.33
2018-02-22T20:09:30.559Z,17.20
2018-02-22T20:11:59.590Z,12.40
2018-02-22T20:14:28.732Z,16.50
2018-02-22T20:16:57.614Z,11.95
2018-02-22T20:19:26.488Z,14.70
2018-02-22T20:21:58.751Z,15.15
2018-02-22T20:24:27.698Z,16.92
2018-02-22T20:26:56.662Z,14.48
2018-02-22T20:29:26.569Z,13.52
2018-02-22T20:31:55.507Z,23.12
2018-02-22T20:34:24.377Z,16.83
2018-02-22T20:36:53.557Z,16.73
2018-02-22T20:39:22.624Z,18.90
2018-02-22T20:41:51.716Z,16.02
2018-02-22T20:44:21.671Z,22.85
2018-02-22T20:46:50.721Z,19.12
2018-02-22T20:49:19.662Z,17.02
2018-02-22T20:51:59.377Z,14.80
2018-02-22T20:54:28.446Z,17.55
2018-02-22T20:56:57.459Z,15.57
2018-02-22T20:59:29.143Z,16.50
2018-02-22T21:01:58.077Z,13.57
2018-02-22T21:04:27.099Z,17.52
2018-02-22T21:06:56.054Z,17.62
2018-02-22T21:09:24.965Z,20.45
2018-02-22T21:11:54.050Z,14.27
2018-02-22T21:14:25.681Z,18.10
2018-02-22T21:16:54.584Z,16.80
2018-02-22T21:19:23.562Z,19.02
2018-02-22T21:21:54.048Z,18.40
2018-02-22T21:24:22.894Z,18.98
2018-02-22T21:26:51.882Z,20.50
2018-02-22T21:29:21.606Z,23.62
2018-02-22T21:31:50.467Z,20.67
2018-02-22T21:34:19.363Z,20.95
2018-02-22T21:36:51.540Z,20.05
2018-02-22T21:39:20.449Z,15.65
2018-02-22T21:41:51.507Z,19.83
2018-02-22T21:44:21.291Z,21.50
2018-02-22T21:46:50.377Z,13.52
2018-02-22T21:49:19.271Z,20.15
2018-02-22T21:51:49.995Z,17.75
2018-02-22T21:54:18.861Z,20.80
2018-02-22T21:56:47.766Z,17.30
2018-02-22T21:59:20.271Z,20.60
2018-02-22T22:01:49.195Z,25.42
2018-02-22T22:04:18.171Z,16.60
2018-02-22T22:06:48.371Z,15.00
2018-02-22T22:09:17.245Z,19.48
2018-02-22T22:11:46.273Z,13.30
2018-02-22T22:14:15.266Z,16.73
2018-02-22T22:16:44.203Z,16.90
2018-02-22T22:19:13.465Z,23.08
2018-02-22T22:21:46.587Z,18.45
2018-02-22T22:24:15.748Z,19.23
2018-02-22T22:26:44.834Z,19.73
2018-02-22T22:29:13.818Z,19.92
2018-02-22T22:31:42.784Z,17.05
2018-02-22T22:34:11.747Z,22.33
2018-02-22T22:36:41.614Z,16.15
2018-02-22T22:39:10.498Z,17.67
2018-02-22T22:41:39.351Z,20.20
2018-02-22T22:44:13.591Z,24.15
2018-02-22T22:46:42.710Z,18.52
2018-02-22T22:49:11.613Z,24.23
2018-02-22T22:51:40.582Z,21.52
2018-02-22T22:54:09.601Z,27.58
2018-02-22T22:56:38.480Z,27.87
2018-02-22T22:59:08.538Z,22.52
2018-02-22T23:01:37.733Z,26.35
2018-02-22T23:04:06.839Z,28.27
2018-02-22T23:06:36.257Z,23.17
2018-02-22T23:09:06.463Z,22.33
2018-02-22T23:11:35.537Z,28.95
2018-02-22T23:14:09.680Z,26.80
2018-02-22T23:16:39.057Z,28.85
2018-02-22T23:19:11.715Z,24.98
2018-02-22T23:21:40.890Z,24.63
2018-02-22T23:24:09.794Z,30.52
2018-02-22T23:26:40.437Z,29.23
2018-02-22T23:29:09.322Z,27.25
2018-02-22T23:31:38.331Z,21.48
2018-02-22T23:34:07.361Z,33.95
2018-02-22T23:36:36.346Z,29.58
2018-02-22T23:39:05.494Z,26.15
2018-02-22T23:41:38.726Z,62.20
2018-02-22T23:44:07.838Z,29.70
2018-02-22T23:46:36.883Z,30.58
2018-02-22T23:49:05.834Z,30.30
2018-02-22T23:51:34.905Z,24.48
2018-02-22T23:54:03.883Z,25.90
2018-02-22T23:56:32.869Z,21.90
2018-02-22T23:59:01.731Z,23.80
